Time;durP1;ratioP1;P1;durP2;ratioP2;P2;SDS_P1;SDS_P2;PMS_P1;PMS_P2;Temp;Humidity;BMP_temperature;BMP_pressure;BME280_temperature;BME280_humidity;BME280_pressure;Samples;Min_cycle;Max_cycle;Signal;HPM_P1;HPM_P2
2024/01/04 00:00:56;;;;;;;2.25;0.73;;;;;;;;;;4908226;29;20060;-79
2024/01/04 00:03:25;;;;;;;2.22;0.50;;;;;;;;;;4910826;29;20475;-79
2024/01/04 00:05:53;;;;;;;2.95;0.43;;;;;;;;;;4909813;29;20058;-79
2024/01/04 00:08:20;;;;;;;2.10;0.30;;;;;;;;;;4910675;29;20056;-77
2024/01/04 00:10:47;;;;;;;3.67;0.50;;;;;;;;;;4908551;29;20456;-79
2024/01/04 00:13:14;;;;;;;2.40;0.32;;;;;;;;;;4910394;29;20051;-80
2024/01/04 00:15:40;;;;;;;1.30;0.30;;;;;;;;;;4911868;29;20048;-79
2024/01/04 00:18:08;;;;;;;2.45;0.90;;;;;;;;;;4911927;29;20110;-79
2024/01/04 00:20:35;;;;;;;2.95;0.57;;;;;;;;;;4933282;29;20107;-79
2024/01/04 00:23:01;;;;;;;2.92;0.50;;;;;;;;;;4915612;29;20457;-79
2024/01/04 00:25:28;;;;;;;3.20;0.50;;;;;;;;;;4918023;29;20047;-78
2024/01/04 00:27:55;;;;;;;2.92;0.65;;;;;;;;;;4915218;29;20056;-79
2024/01/04 00:30:22;;;;;;;1.33;0.40;;;;;;;;;;4914636;29;20079;-79
2024/01/04 00:32:49;;;;;;;2.65;0.45;;;;;;;;;;4913942;29;20070;-79
2024/01/04 00:35:16;;;;;;;1.15;0.40;;;;;;;;;;4928552;29;20044;-79
2024/01/04 00:37:43;;;;;;;2.50;0.70;;;;;;;;;;4912145;29;20052;-79
2024/01/04 00:40:11;;;;;;;1.25;0.43;;;;;;;;;;4916048;29;20056;-78
2024/01/04 00:42:38;;;;;;;5.63;0.43;;;;;;;;;;4934264;29;20048;-78
2024/01/04 00:45:05;;;;;;;3.40;0.52;;;;;;;;;;4916383;29;20052;-77
2024/01/04 00:47:32;;;;;;;3.38;0.90;;;;;;;;;;4919166;29;20060;-78
2024/01/04 00:49:59;;;;;;;1.75;0.50;;;;;;;;;;4916426;29;20509;-78
2024/01/04 00:52:26;;;;;;;2.28;0.30;;;;;;;;;;4917756;29;20048;-79
2024/01/04 00:54:55;;;;;;;3.30;0.40;;;;;;;;;;4916461;29;20080;-78
2024/01/04 00:57:22;;;;;;;3.35;0.60;;;;;;;;;;4935410;29;20055;-77
2024/01/04 00:59:48;;;;;;;1.63;0.57;;;;;;;;;;4941711;28;20044;-77
2024/01/04 01:02:15;;;;;;;4.57;0.40;;;;;;;;;;4926203;29;20050;-77
2024/01/04 01:04:42;;;;;;;0.95;0.43;;;;;;;;;;4937817;28;20056;-79
2024/01/04 01:07:09;;;;;;;3.22;0.50;;;;;;;;;;4936159;29;20052;-79
2024/01/04 01:09:37;;;;;;;2.47;0.65;;;;;;;;;;4951173;29;20055;-79
2024/01/04 01:12:04;;;;;;;1.45;0.47;;;;;;;;;;4934905;29;20084;-79
2024/01/04 01:14:31;;;;;;;2.25;0.43;;;;;;;;;;4934591;29;20048;-78
2024/01/04 01:16:58;;;;;;;4.45;0.30;;;;;;;;;;4931030;29;20075;-79
2024/01/04 01:19:25;;;;;;;2.80;0.30;;;;;;;;;;4928367;29;20099;-78
2024/01/04 01:21:52;;;;;;;1.38;0.25;;;;;;;;;;4927398;29;20079;-79
2024/01/04 01:24:19;;;;;;;0.55;0.25;;;;;;;;;;4928150;29;20052;-79
2024/01/04 01:26:46;;;;;;;1.13;0.35;;;;;;;;;;4928641;29;20862;-78
2024/01/04 01:29:13;;;;;;;1.30;0.32;;;;;;;;;;4928853;29;20119;-79
2024/01/04 01:31:43;;;;;;;0.95;0.30;;;;;;;;;;4913129;29;20048;-78
2024/01/04 01:34:10;;;;;;;3.35;0.45;;;;;;;;;;4913607;29;20070;-81
2024/01/04 01:36:41;;;;;;;0.98;0.30;;;;;;;;;;4931098;29;20043;-79
2024/01/04 01:39:11;;;;;;;1.73;0.32;;;;;;;;;;4906839;29;20056;-78
2024/01/04 01:41:38;;;;;;;1.48;0.40;;;;;;;;;;4930824;28;20099;-79
2024/01/04 01:44:05;;;;;;;3.20;0.38;;;;;;;;;;4906926;29;20055;-79
2024/01/04 01:46:32;;;;;;;2.13;0.40;;;;;;;;;;4925687;29;20060;-79
2024/01/04 01:48:59;;;;;;;4.70;0.77;;;;;;;;;;4908882;29;20389;-80
2024/01/04 01:51:26;;;;;;;2.90;0.60;;;;;;;;;;4911702;29;20055;-78
2024/01/04 01:53:53;;;;;;;1.55;0.38;;;;;;;;;;4927619;29;20055;-79
2024/01/04 01:56:20;;;;;;;1.23;0.28;;;;;;;;;;4942858;29;20071;-79
2024/01/04 01:58:48;;;;;;;1.75;0.40;;;;;;;;;;4909772;29;20084;-79
2024/01/04 02:01:15;;;;;;;1.65;0.30;;;;;;;;;;4911632;29;20056;-80
2024/01/04 02:03:42;;;;;;;1.83;0.30;;;;;;;;;;4929700;29;20063;-80
2024/01/04 02:06:08;;;;;;;1.10;0.10;;;;;;;;;;4914865;29;20055;-79
2024/01/04 02:08:35;;;;;;;0.73;0.10;;;;;;;;;;4914907;29;20052;-79
2024/01/04 02:11:02;;;;;;;1.48;0.15;;;;;;;;;;4912244;29;20138;-79
2024/01/04 02:13:29;;;;;;;1.92;0.43;;;;;;;;;;4931497;29;20079;-80
2024/01/04 02:15:56;;;;;;;0.85;0.20;;;;;;;;;;4917478;29;20062;-80
2024/01/04 02:18:23;;;;;;;0.55;0.00;;;;;;;;;;4917886;29;20048;-80
2024/01/04 02:20:50;;;;;;;0.00;0.00;;;;;;;;;;4941586;29;20066;-79
2024/01/04 02:23:17;;;;;;;1.45;0.20;;;;;;;;;;4935462;29;20056;-79
2024/01/04 02:25:44;;;;;;;0.28;0.10;;;;;;;;;;4927491;29;20062;-78
2024/01/04 02:28:11;;;;;;;0.35;0.10;;;;;;;;;;4929013;29;20047;-79
2024/01/04 02:30:38;;;;;;;1.25;0.20;;;;;;;;;;4927559;29;20075;-79
2024/01/04 02:33:05;;;;;;;1.08;0.20;;;;;;;;;;4927163;29;20058;-79
2024/01/04 02:35:32;;;;;;;0.75;0.20;;;;;;;;;;4935795;29;20047;-78
2024/01/04 02:37:59;;;;;;;3.20;0.43;;;;;;;;;;4926826;29;20035;-78
2024/01/04 02:40:26;;;;;;;0.70;0.15;;;;;;;;;;4941157;29;20027;-77
2024/01/04 02:42:52;;;;;;;0.52;0.20;;;;;;;;;;4944676;28;20036;-78
2024/01/04 02:45:19;;;;;;;0.65;0.13;;;;;;;;;;4910396;29;20052;-79
2024/01/04 02:47:46;;;;;;;0.40;0.00;;;;;;;;;;4933993;29;20075;-79
2024/01/04 02:50:14;;;;;;;0.30;0.10;;;;;;;;;;4935256;29;20413;-78
2024/01/04 02:52:40;;;;;;;0.35;0.00;;;;;;;;;;4937044;29;20062;-79
2024/01/04 02:55:07;;;;;;;0.55;0.00;;;;;;;;;;4917107;29;20138;-78
2024/01/04 02:57:34;;;;;;;0.63;0.10;;;;;;;;;;4905017;29;20079;-79
2024/01/04 03:00:01;;;;;;;0.55;0.10;;;;;;;;;;4920689;29;20075;-79
2024/01/04 03:02:28;;;;;;;0.70;0.00;;;;;;;;;;4903731;29;20086;-79
2024/01/04 03:04:55;;;;;;;0.43;0.00;;;;;;;;;;4915750;29;20147;-79
2024/01/04 03:07:21;;;;;;;0.38;0.10;;;;;;;;;;4919539;29;20090;-79
2024/01/04 03:09:48;;;;;;;0.08;0.05;;;;;;;;;;4905137;29;20075;-79
2024/01/04 03:12:16;;;;;;;0.32;0.10;;;;;;;;;;4913300;29;20142;-78
2024/01/04 03:14:43;;;;;;;4.05;0.20;;;;;;;;;;4921577;29;20138;-80
2024/01/04 03:17:10;;;;;;;0.10;0.10;;;;;;;;;;4937629;29;20051;-79
2024/01/04 03:19:36;;;;;;;0.00;0.00;;;;;;;;;;4938761;29;20605;-79
2024/01/04 03:22:03;;;;;;;0.45;0.03;;;;;;;;;;4938256;29;20052;-78
2024/01/04 03:24:31;;;;;;;0.00;0.00;;;;;;;;;;4939022;29;20115;-80
2024/01/04 03:26:58;;;;;;;0.10;0.10;;;;;;;;;;4955188;29;20140;-79
2024/01/04 03:29:25;;;;;;;0.05;0.05;;;;;;;;;;4939912;29;20061;-80
2024/01/04 03:31:52;;;;;;;0.22;0.00;;;;;;;;;;4940636;29;20094;-80
2024/01/04 03:34:18;;;;;;;0.52;0.10;;;;;;;;;;4940210;29;20063;-79
2024/01/04 03:36:45;;;;;;;0.98;0.20;;;;;;;;;;4941478;29;20047;-79
2024/01/04 03:39:12;;;;;;;0.20;0.10;;;;;;;;;;4955917;29;20152;-79
2024/01/04 03:41:39;;;;;;;2.08;0.10;;;;;;;;;;4942243;29;20067;-79
2024/01/04 03:44:06;;;;;;;0.10;0.10;;;;;;;;;;4942136;29;20059;-79
2024/01/04 03:46:33;;;;;;;0.20;0.15;;;;;;;;;;4941070;29;20102;-79
2024/01/04 03:49:00;;;;;;;3.10;0.10;;;;;;;;;;4940943;29;20163;-79
2024/01/04 03:51:27;;;;;;;0.98;0.08;;;;;;;;;;4940466;29;20094;-79
2024/01/04 03:53:53;;;;;;;0.45;0.10;;;;;;;;;;4951315;29;20708;-78
2024/01/04 03:56:20;;;;;;;0.75;0.20;;;;;;;;;;4904512;29;20052;-78
2024/01/04 03:58:47;;;;;;;0.65;0.10;;;;;;;;;;4940323;29;20055;-78
2024/01/04 04:01:14;;;;;;;0.80;0.05;;;;;;;;;;4939710;29;20138;-80
2024/01/04 04:03:41;;;;;;;0.20;0.00;;;;;;;;;;4951807;29;20048;-79
2024/01/04 04:06:08;;;;;;;1.48;0.20;;;;;;;;;;4904845;29;20052;-77
2024/01/04 04:08:35;;;;;;;1.73;0.20;;;;;;;;;;4927556;29;20059;-78
2024/01/04 04:11:02;;;;;;;3.92;0.30;;;;;;;;;;4941481;29;20058;-76
2024/01/04 04:13:30;;;;;;;1.35;0.22;;;;;;;;;;4947690;29;20048;-78
2024/01/04 04:15:57;;;;;;;1.75;0.20;;;;;;;;;;4913715;29;20634;-79
2024/01/04 04:18:24;;;;;;;2.03;0.35;;;;;;;;;;4928855;29;20120;-79
2024/01/04 04:20:51;;;;;;;2.70;0.50;;;;;;;;;;4943264;29;20052;-78
2024/01/04 04:23:18;;;;;;;1.38;0.30;;;;;;;;;;4942247;29;20080;-77
2024/01/04 04:25:44;;;;;;;2.00;0.40;;;;;;;;;;4965582;29;20071;-78
2024/01/04 04:28:13;;;;;;;2.15;0.65;;;;;;;;;;4947590;29;20059;-79
2024/01/04 04:30:39;;;;;;;1.73;0.30;;;;;;;;;;4948734;29;20127;-79
2024/01/04 04:33:06;;;;;;;0.98;0.25;;;;;;;;;;4947604;29;20054;-78
2024/01/04 04:35:34;;;;;;;1.92;0.55;;;;;;;;;;4946661;29;20051;-78
2024/01/04 04:38:13;;;;;;;1.20;0.30;;;;;;;;;;4947166;29;20083;-78
2024/01/04 04:40:40;;;;;;;2.35;0.28;;;;;;;;;;4947751;29;20055;-78
2024/01/04 04:43:06;;;;;;;1.52;0.32;;;;;;;;;;4964003;29;20083;-77
2024/01/04 04:45:33;;;;;;;2.42;0.50;;;;;;;;;;4932113;29;20075;-78
2024/01/04 04:48:00;;;;;;;2.83;0.55;;;;;;;;;;4945857;29;20443;-78
2024/01/04 04:50:27;;;;;;;1.20;0.65;;;;;;;;;;4931920;29;20083;-78
2024/01/04 04:52:54;;;;;;;3.40;0.38;;;;;;;;;;4925892;29;20048;-78
2024/01/04 04:55:21;;;;;;;1.00;0.30;;;;;;;;;;4945770;29;20048;-78
2024/01/04 04:57:48;;;;;;;0.55;0.20;;;;;;;;;;4931868;29;20060;-79
2024/01/04 05:00:15;;;;;;;0.70;0.35;;;;;;;;;;4934409;29;20063;-79
2024/01/04 05:02:42;;;;;;;1.17;0.30;;;;;;;;;;4932373;29;20055;-78
2024/01/04 05:05:09;;;;;;;2.05;0.50;;;;;;;;;;4935891;29;20055;-78
2024/01/04 05:07:36;;;;;;;2.80;0.40;;;;;;;;;;4925982;29;20056;-80
2024/01/04 05:10:04;;;;;;;2.22;0.40;;;;;;;;;;4907014;29;20086;-79
2024/01/04 05:12:31;;;;;;;3.35;0.50;;;;;;;;;;4917644;29;20550;-83
2024/01/04 05:14:58;;;;;;;0.90;0.70;;;;;;;;;;4904029;29;20139;-78
2024/01/04 05:17:25;;;;;;;2.90;0.52;;;;;;;;;;4922928;29;20059;-80
2024/01/04 05:19:52;;;;;;;3.55;0.77;;;;;;;;;;4903793;29;20078;-79
2024/01/04 05:22:19;;;;;;;0.90;0.40;;;;;;;;;;4908283;29;20059;-79
2024/01/04 05:24:46;;;;;;;3.35;0.95;;;;;;;;;;4907763;29;20090;-80
2024/01/04 05:27:13;;;;;;;2.10;0.40;;;;;;;;;;4922937;29;20571;-82
2024/01/04 05:29:40;;;;;;;2.55;0.40;;;;;;;;;;4913259;29;20056;-78
2024/01/04 05:32:06;;;;;;;2.47;0.30;;;;;;;;;;4947776;29;20060;-79
2024/01/04 05:34:33;;;;;;;5.18;0.50;;;;;;;;;;4915854;29;20146;-79
2024/01/04 05:37:01;;;;;;;2.65;0.60;;;;;;;;;;4943603;29;20076;-79
2024/01/04 05:39:27;;;;;;;1.50;0.30;;;;;;;;;;4930520;29;20055;-79
2024/01/04 05:41:54;;;;;;;1.33;0.30;;;;;;;;;;4945167;29;20087;-79
2024/01/04 05:44:21;;;;;;;3.33;0.32;;;;;;;;;;4912139;29;20121;-80
2024/01/04 05:46:48;;;;;;;1.10;0.63;;;;;;;;;;4912929;29;20139;-79
2024/01/04 05:49:15;;;;;;;2.03;0.40;;;;;;;;;;4905061;29;20090;-78
2024/01/04 05:51:42;;;;;;;0.55;0.20;;;;;;;;;;4947087;29;20553;-79
2024/01/04 05:54:09;;;;;;;3.40;0.38;;;;;;;;;;4950694;29;20078;-77
2024/01/04 05:56:37;;;;;;;1.45;0.32;;;;;;;;;;4919894;29;20047;-79
2024/01/04 05:59:04;;;;;;;1.35;0.30;;;;;;;;;;4917853;29;20476;-77
2024/01/04 06:01:30;;;;;;;2.78;0.55;;;;;;;;;;4959942;29;20066;-78
2024/01/04 06:04:00;;;;;;;1.98;0.20;;;;;;;;;;4928962;29;20067;-78
2024/01/04 06:06:27;;;;;;;5.47;0.75;;;;;;;;;;4929156;29;20067;-79
2024/01/04 06:08:54;;;;;;;0.80;0.57;;;;;;;;;;4914620;29;20052;-78
2024/01/04 06:11:21;;;;;;;3.47;0.32;;;;;;;;;;4956733;29;20059;-79
2024/01/04 06:13:48;;;;;;;2.30;0.35;;;;;;;;;;4947695;29;20083;-79
2024/01/04 06:16:17;;;;;;;2.10;0.40;;;;;;;;;;4947363;29;20051;-79
2024/01/04 06:18:44;;;;;;;2.80;0.60;;;;;;;;;;4916589;29;20119;-79
2024/01/04 06:21:11;;;;;;;3.78;0.45;;;;;;;;;;4915080;29;20079;-79
2024/01/04 06:23:38;;;;;;;6.05;0.52;;;;;;;;;;4949488;29;20347;-79
2024/01/04 06:26:05;;;;;;;3.30;0.82;;;;;;;;;;4933942;29;20063;-79
2024/01/04 06:28:31;;;;;;;4.00;0.52;;;;;;;;;;4949729;29;20056;-79
2024/01/04 06:30:58;;;;;;;3.40;0.40;;;;;;;;;;4948413;29;20075;-77
2024/01/04 06:33:25;;;;;;;2.15;0.52;;;;;;;;;;4905151;29;20063;-78
2024/01/04 06:35:52;;;;;;;1.75;0.50;;;;;;;;;;4928531;29;20631;-78
2024/01/04 06:38:24;;;;;;;1.45;1.08;;;;;;;;;;4937102;29;20099;-79
2024/01/04 06:40:52;;;;;;;2.47;0.70;;;;;;;;;;4916440;29;20059;-79
2024/01/04 06:43:19;;;;;;;3.03;0.38;;;;;;;;;;4918358;29;20058;-79
2024/01/04 06:45:46;;;;;;;2.08;0.50;;;;;;;;;;4916585;29;20107;-79
2024/01/04 06:48:13;;;;;;;1.70;0.60;;;;;;;;;;4917684;29;20047;-78
2024/01/04 06:50:40;;;;;;;2.67;0.40;;;;;;;;;;4919827;29;20060;-79
2024/01/04 06:53:07;;;;;;;2.25;0.30;;;;;;;;;;4931397;29;20048;-77
2024/01/04 06:55:34;;;;;;;0.75;0.32;;;;;;;;;;4927031;29;20067;-78
2024/01/04 06:58:03;;;;;;;3.47;0.45;;;;;;;;;;4915989;29;20071;-77
2024/01/04 07:00:30;;;;;;;6.28;0.55;;;;;;;;;;4918041;29;20491;-78
2024/01/04 07:02:58;;;;;;;2.40;0.38;;;;;;;;;;4915345;29;20059;-78
2024/01/04 07:05:25;;;;;;;1.85;0.30;;;;;;;;;;4915107;29;20052;-78
2024/01/04 07:07:52;;;;;;;1.25;0.40;;;;;;;;;;4929804;29;20087;-79
2024/01/04 07:10:19;;;;;;;0.80;0.38;;;;;;;;;;4922221;29;20051;-77
2024/01/04 07:12:46;;;;;;;0.90;0.20;;;;;;;;;;4911505;29;20115;-79
2024/01/04 07:15:14;;;;;;;2.05;0.35;;;;;;;;;;4936411;29;20083;-78
2024/01/04 07:17:41;;;;;;;2.25;0.22;;;;;;;;;;4919207;29;20674;-79
2024/01/04 07:20:09;;;;;;;0.75;0.25;;;;;;;;;;4914668;29;20042;-76
2024/01/04 07:22:36;;;;;;;1.40;0.70;;;;;;;;;;4919103;29;20099;-77
2024/01/04 07:25:03;;;;;;;3.33;0.82;;;;;;;;;;4913235;29;20052;-81
2024/01/04 07:27:30;;;;;;;0.43;0.30;;;;;;;;;;4900247;29;20453;-83
2024/01/04 07:29:58;;;;;;;2.08;0.40;;;;;;;;;;4902915;29;20055;-82
2024/01/04 07:32:25;;;;;;;3.00;0.20;;;;;;;;;;4906279;29;20067;-82
2024/01/04 07:34:52;;;;;;;2.88;0.88;;;;;;;;;;4916677;29;20056;-81
2024/01/04 07:37:33;;;;;;;1.02;0.38;;;;;;;;;;4939758;28;20512;-80
2024/01/04 07:40:00;;;;;;;1.83;0.38;;;;;;;;;;4898005;29;20409;-83
2024/01/04 07:42:27;;;;;;;1.65;0.40;;;;;;;;;;4929075;29;20106;-84
2024/01/04 07:44:53;;;;;;;0.68;0.28;;;;;;;;;;4916632;29;20048;-83
2024/01/04 07:47:32;;;;;;;1.40;0.30;;;;;;;;;;4904771;29;20082;-83
2024/01/04 07:49:59;;;;;;;1.83;0.45;;;;;;;;;;4898973;29;20060;-83
2024/01/04 07:52:25;;;;;;;2.70;0.22;;;;;;;;;;4901289;29;20063;-83
2024/01/04 07:54:52;;;;;;;1.30;0.30;;;;;;;;;;4898965;29;20107;-82
2024/01/04 07:57:19;;;;;;;1.05;0.60;;;;;;;;;;4914022;29;20056;-83
2024/01/04 07:59:46;;;;;;;1.27;0.40;;;;;;;;;;4900084;29;20052;-83
2024/01/04 08:02:13;;;;;;;2.78;0.95;;;;;;;;;;4899782;29;20060;-82
2024/01/04 08:04:40;;;;;;;4.18;0.88;;;;;;;;;;4903047;29;20062;-83
2024/01/04 08:07:07;;;;;;;1.20;0.50;;;;;;;;;;4905960;29;20146;-82
2024/01/04 08:09:34;;;;;;;2.85;0.52;;;;;;;;;;4918817;29;20111;-83
2024/01/04 08:12:05;;;;;;;3.92;1.45;;;;;;;;;;4901328;29;20048;-83
2024/01/04 08:14:33;;;;;;;4.53;1.90;;;;;;;;;;4903509;29;20147;-83
2024/01/04 08:17:00;;;;;;;2.35;1.00;;;;;;;;;;4900348;29;20063;-83
2024/01/04 08:19:27;;;;;;;0.85;0.20;;;;;;;;;;4903144;29;20058;-83
2024/01/04 08:21:54;;;;;;;2.05;0.65;;;;;;;;;;4900751;29;20059;-77
2024/01/04 08:24:20;;;;;;;1.23;0.52;;;;;;;;;;4912852;29;20051;-77
2024/01/04 08:26:47;;;;;;;3.45;0.80;;;;;;;;;;4896733;29;20056;-76
2024/01/04 08:29:14;;;;;;;5.38;0.98;;;;;;;;;;4927362;29;20503;-75
2024/01/04 08:31:41;;;;;;;2.50;0.57;;;;;;;;;;4896558;29;20552;-75
2024/01/04 08:34:08;;;;;;;3.85;0.73;;;;;;;;;;4912189;29;20047;-76
2024/01/04 08:36:35;;;;;;;4.75;0.73;;;;;;;;;;4918594;29;20056;-74
2024/01/04 08:39:03;;;;;;;5.60;1.40;;;;;;;;;;4900245;29;20072;-79
2024/01/04 08:41:30;;;;;;;5.13;1.38;;;;;;;;;;4920225;29;20074;-81
2024/01/04 08:43:57;;;;;;;2.65;0.93;;;;;;;;;;4908115;29;20143;-79
2024/01/04 08:46:24;;;;;;;3.58;1.63;;;;;;;;;;4920857;29;20047;-81
2024/01/04 08:48:50;;;;;;;3.33;0.65;;;;;;;;;;4900632;29;20575;-81
2024/01/04 08:51:18;;;;;;;4.50;0.57;;;;;;;;;;4937161;29;20043;-79
2024/01/04 08:53:49;;;;;;;6.57;0.98;;;;;;;;;;4922602;29;20048;-82
2024/01/04 08:56:19;;;;;;;2.55;0.60;;;;;;;;;;4921601;29;20059;-82
2024/01/04 08:58:47;;;;;;;4.13;0.73;;;;;;;;;;4920974;29;20123;-81
2024/01/04 09:01:14;;;;;;;3.13;0.60;;;;;;;;;;4951157;29;20072;-78
2024/01/04 09:03:41;;;;;;;6.95;0.80;;;;;;;;;;4919413;29;20051;-79
2024/01/04 09:06:11;;;;;;;1.38;0.73;;;;;;;;;;4914832;29;20131;-77
2024/01/04 09:08:38;;;;;;;1.25;0.50;;;;;;;;;;4916883;29;20058;-78
2024/01/04 09:11:06;;;;;;;3.88;0.93;;;;;;;;;;4913407;29;20062;-78
2024/01/04 09:13:33;;;;;;;4.65;0.70;;;;;;;;;;4945978;28;20075;-78
2024/01/04 09:16:00;;;;;;;4.22;1.23;;;;;;;;;;4914085;29;20056;-78
2024/01/04 09:18:29;;;;;;;4.07;1.25;;;;;;;;;;4916941;29;20428;-78
2024/01/04 09:20:56;;;;;;;4.53;0.85;;;;;;;;;;4918436;29;20075;-78
2024/01/04 09:23:25;;;;;;;6.35;1.10;;;;;;;;;;4918435;29;20052;-78
2024/01/04 09:25:51;;;;;;;3.50;1.45;;;;;;;;;;4946756;28;20119;-77
2024/01/04 09:28:18;;;;;;;2.22;0.73;;;;;;;;;;4916898;29;20044;-78
2024/01/04 09:30:45;;;;;;;3.28;0.70;;;;;;;;;;4902315;29;20448;-78
2024/01/04 09:33:15;;;;;;;3.85;0.80;;;;;;;;;;4919810;29;20110;-78
2024/01/04 09:35:42;;;;;;;4.95;0.80;;;;;;;;;;4906103;29;20060;-79
2024/01/04 09:38:09;;;;;;;6.82;1.27;;;;;;;;;;4920654;29;20059;-79
2024/01/04 09:40:36;;;;;;;3.05;0.50;;;;;;;;;;4920986;29;20500;-79
2024/01/04 09:43:03;;;;;;;3.72;0.90;;;;;;;;;;4902318;29;20523;-77
2024/01/04 09:45:29;;;;;;;2.63;1.10;;;;;;;;;;4914325;29;20076;-77
2024/01/04 09:47:57;;;;;;;2.47;1.23;;;;;;;;;;4917186;29;20424;-77
2024/01/04 09:50:24;;;;;;;3.78;1.10;;;;;;;;;;4913111;29;20052;-76
2024/01/04 09:52:56;;;;;;;4.40;1.08;;;;;;;;;;4915459;29;20051;-77
2024/01/04 09:55:23;;;;;;;3.00;0.82;;;;;;;;;;4913088;29;20431;-77
2024/01/04 09:57:50;;;;;;;3.63;0.60;;;;;;;;;;4901476;29;20055;-78
2024/01/04 10:00:17;;;;;;;4.18;0.80;;;;;;;;;;4917186;29;20074;-77
2024/01/04 10:02:45;;;;;;;3.50;0.77;;;;;;;;;;4912590;29;20054;-77
2024/01/04 10:05:16;;;;;;;3.45;1.02;;;;;;;;;;4918885;29;20142;-77
2024/01/04 10:07:48;;;;;;;4.30;1.40;;;;;;;;;;4907839;29;20051;-77
2024/01/04 10:10:19;;;;;;;2.22;0.55;;;;;;;;;;4911612;29;20054;-78
2024/01/04 10:12:46;;;;;;;6.43;0.80;;;;;;;;;;4900396;29;20044;-78
2024/01/04 10:15:15;;;;;;;2.72;0.55;;;;;;;;;;4916452;29;20058;-78
2024/01/04 10:17:45;;;;;;;2.15;0.82;;;;;;;;;;4931815;29;20079;-77
2024/01/04 10:20:13;;;;;;;1.63;0.50;;;;;;;;;;4917632;29;20051;-76
2024/01/04 10:22:40;;;;;;;1.58;0.40;;;;;;;;;;4914246;29;20047;-78
2024/01/04 10:25:12;;;;;;;2.20;0.35;;;;;;;;;;4917190;29;20059;-77
2024/01/04 10:27:39;;;;;;;2.50;0.47;;;;;;;;;;4916928;29;20570;-77
2024/01/04 10:30:07;;;;;;;1.77;0.52;;;;;;;;;;4917287;29;20551;-78
2024/01/04 10:32:34;;;;;;;3.08;0.88;;;;;;;;;;4916263;29;20134;-78
2024/01/04 10:35:08;;;;;;;5.00;1.00;;;;;;;;;;4900598;29;20060;-78
2024/01/04 10:37:36;;;;;;;3.30;0.80;;;;;;;;;;4916051;29;20043;-77
2024/01/04 10:40:05;;;;;;;1.08;0.47;;;;;;;;;;4915668;29;20146;-77
2024/01/04 10:42:32;;;;;;;1.17;0.40;;;;;;;;;;4914024;29;20056;-77
2024/01/04 10:44:59;;;;;;;1.80;0.45;;;;;;;;;;4910304;29;20413;-77
2024/01/04 10:47:29;;;;;;;4.45;0.80;;;;;;;;;;4912690;29;20051;-77
2024/01/04 10:49:57;;;;;;;2.13;1.15;;;;;;;;;;4916580;29;20462;-77
2024/01/04 10:52:32;;;;;;;2.47;0.73;;;;;;;;;;4938181;29;20538;-77
2024/01/04 10:55:20;;;;;;;2.42;0.75;;;;;;;;;;4940823;29;20091;-77
2024/01/04 10:57:47;;;;;;;2.10;0.47;;;;;;;;;;4934597;29;20048;-77
2024/01/04 11:00:14;;;;;;;3.28;0.57;;;;;;;;;;4920180;29;20052;-77
2024/01/04 11:02:41;;;;;;;1.73;0.35;;;;;;;;;;4917757;29;20060;-77
2024/01/04 11:05:09;;;;;;;0.73;0.30;;;;;;;;;;4920040;29;20066;-77
2024/01/04 11:07:39;;;;;;;3.22;0.50;;;;;;;;;;4919260;29;20052;-77
2024/01/04 11:10:09;;;;;;;1.75;0.77;;;;;;;;;;4917542;29;20054;-77
2024/01/04 11:12:36;;;;;;;2.30;0.88;;;;;;;;;;4901948;29;20044;-78
2024/01/04 11:15:04;;;;;;;1.67;0.47;;;;;;;;;;4914669;29;20087;-77
2024/01/04 11:17:43;;;;;;;2.28;0.55;;;;;;;;;;4916044;29;20527;-77
2024/01/04 11:20:26;;;;;;;1.00;0.30;;;;;;;;;;4932302;29;20611;-76
2024/01/04 11:23:23;;;;;;;1.75;0.50;;;;;;;;;;4928303;29;20059;-80
2024/01/04 11:26:12;;;;;;;1.65;0.57;;;;;;;;;;4914466;29;20055;-80
2024/01/04 11:28:39;;;;;;;2.05;0.40;;;;;;;;;;4915021;29;20051;-80
2024/01/04 11:31:06;;;;;;;1.48;0.30;;;;;;;;;;4947935;29;20063;-79
2024/01/04 11:33:38;;;;;;;1.02;0.30;;;;;;;;;;4916918;29;20575;-79
2024/01/04 11:36:07;;;;;;;2.17;0.50;;;;;;;;;;4902862;29;20059;-79
2024/01/04 11:38:34;;;;;;;1.27;0.25;;;;;;;;;;4915797;29;20162;-77
2024/01/04 11:41:02;;;;;;;0.65;0.30;;;;;;;;;;4915075;29;20147;-77
2024/01/04 11:43:36;;;;;;;2.00;0.70;;;;;;;;;;4915133;29;20059;-79
2024/01/04 11:46:23;;;;;;;2.03;0.47;;;;;;;;;;4916525;29;20076;-83
2024/01/04 11:49:01;;;;;;;2.15;0.45;;;;;;;;;;4912614;29;20157;-85
2024/01/04 11:51:35;;;;;;;1.27;0.30;;;;;;;;;;4917947;29;20578;-84
2024/01/04 11:54:04;;;;;;;1.17;1.05;;;;;;;;;;4932912;29;20062;-85
2024/01/04 11:56:31;;;;;;;1.35;0.40;;;;;;;;;;4917798;29;20048;-83
2024/01/04 11:59:15;;;;;;;2.42;0.25;;;;;;;;;;4916010;29;20447;-85
2024/01/04 12:01:43;;;;;;;2.97;0.50;;;;;;;;;;4911313;29;20048;-84
2024/01/04 12:04:14;;;;;;;1.77;0.28;;;;;;;;;;4917518;29;20135;-84
2024/01/04 12:06:43;;;;;;;0.90;0.32;;;;;;;;;;4932923;29;20043;-85
2024/01/04 12:09:10;;;;;;;0.80;0.43;;;;;;;;;;4901218;29;20138;-84
2024/01/04 12:11:39;;;;;;;1.85;0.90;;;;;;;;;;4921100;29;20062;-78
2024/01/04 12:14:08;;;;;;;2.47;0.40;;;;;;;;;;4919941;29;20090;-78
2024/01/04 12:16:38;;;;;;;1.83;0.68;;;;;;;;;;4921561;29;20043;-78
2024/01/04 12:19:05;;;;;;;2.53;0.50;;;;;;;;;;4915280;29;20154;-78
2024/01/04 12:21:33;;;;;;;2.88;0.50;;;;;;;;;;4919210;29;20562;-78
2024/01/04 12:24:02;;;;;;;3.92;0.60;;;;;;;;;;4968484;28;20059;-78
2024/01/04 12:26:29;;;;;;;4.43;0.43;;;;;;;;;;4924579;29;20058;-78
2024/01/04 12:28:56;;;;;;;4.72;0.65;;;;;;;;;;4917397;29;20047;-78
2024/01/04 12:31:26;;;;;;;1.52;0.40;;;;;;;;;;4920230;29;20055;-77
2024/01/04 12:33:54;;;;;;;3.72;0.45;;;;;;;;;;4945200;28;20107;-78
2024/01/04 12:36:22;;;;;;;2.58;0.75;;;;;;;;;;4918538;29;20102;-78
2024/01/04 12:38:51;;;;;;;2.70;0.50;;;;;;;;;;4904304;29;20050;-78
2024/01/04 12:41:29;;;;;;;2.55;0.50;;;;;;;;;;4919632;29;20047;-78
2024/01/04 12:43:56;;;;;;;2.90;0.77;;;;;;;;;;4918464;29;20415;-78
2024/01/04 12:46:23;;;;;;;1.30;0.40;;;;;;;;;;4922173;29;20495;-78
2024/01/04 12:48:54;;;;;;;3.13;0.85;;;;;;;;;;4902944;29;20184;-77
2024/01/04 12:51:27;;;;;;;2.17;0.63;;;;;;;;;;4935011;29;20066;-77
2024/01/04 12:53:54;;;;;;;3.08;0.85;;;;;;;;;;4916867;29;20051;-77
2024/01/04 12:56:21;;;;;;;5.65;1.42;;;;;;;;;;4918518;29;20051;-78
2024/01/04 12:58:49;;;;;;;8.38;1.42;;;;;;;;;;4920597;29;20047;-78
2024/01/04 13:01:16;;;;;;;5.13;1.27;;;;;;;;;;4920464;29;20047;-80
2024/01/04 13:03:44;;;;;;;5.45;0.73;;;;;;;;;;4904831;29;20067;-78
2024/01/04 13:06:11;;;;;;;3.15;0.98;;;;;;;;;;4921346;29;20686;-78
2024/01/04 13:08:39;;;;;;;3.55;1.33;;;;;;;;;;4916767;29;20044;-79
2024/01/04 13:11:08;;;;;;;2.80;0.80;;;;;;;;;;4920903;29;20052;-78
2024/01/04 13:13:37;;;;;;;3.80;1.10;;;;;;;;;;4921749;29;20107;-77
2024/01/04 13:16:07;;;;;;;2.83;0.98;;;;;;;;;;4903220;29;20685;-76
2024/01/04 13:18:34;;;;;;;5.00;1.10;;;;;;;;;;4906627;29;20055;-77
2024/01/04 13:21:01;;;;;;;6.32;1.05;;;;;;;;;;4911505;29;20064;-76
2024/01/04 13:23:29;;;;;;;5.47;0.90;;;;;;;;;;4917539;29;20136;-77
2024/01/04 13:25:57;;;;;;;3.08;0.60;;;;;;;;;;4918451;29;20131;-77
2024/01/04 13:28:25;;;;;;;4.82;0.68;;;;;;;;;;4917262;29;20424;-78
2024/01/04 13:30:52;;;;;;;4.18;1.15;;;;;;;;;;4917692;29;20071;-77
2024/01/04 13:33:20;;;;;;;5.50;0.98;;;;;;;;;;4916972;29;20074;-77
2024/01/04 13:35:47;;;;;;;7.25;1.58;;;;;;;;;;4914948;29;20062;-77
2024/01/04 13:38:14;;;;;;;4.15;1.05;;;;;;;;;;4901870;29;20055;-77
2024/01/04 13:40:41;;;;;;;3.45;0.90;;;;;;;;;;4898367;29;20150;-77
2024/01/04 13:43:08;;;;;;;2.78;1.00;;;;;;;;;;4933198;29;20062;-78
2024/01/04 13:45:35;;;;;;;3.50;0.80;;;;;;;;;;4932718;29;20486;-77
2024/01/04 13:48:02;;;;;;;5.43;1.20;;;;;;;;;;4916664;29;20052;-77
2024/01/04 13:50:29;;;;;;;4.78;1.10;;;;;;;;;;4917293;29;20081;-77
2024/01/04 13:52:57;;;;;;;4.55;1.15;;;;;;;;;;4949734;29;20131;-78
2024/01/04 13:55:24;;;;;;;3.63;0.73;;;;;;;;;;4919192;29;20052;-79
2024/01/04 13:57:51;;;;;;;3.70;0.80;;;;;;;;;;4919463;29;20075;-80
2024/01/04 14:00:23;;;;;;;4.45;0.77;;;;;;;;;;4919739;29;20139;-79
2024/01/04 14:02:50;;;;;;;5.95;1.13;;;;;;;;;;4920389;29;20134;-80
2024/01/04 14:05:17;;;;;;;6.00;1.08;;;;;;;;;;4921379;29;20102;-79
2024/01/04 14:07:44;;;;;;;4.25;0.70;;;;;;;;;;4921830;29;20464;-80
2024/01/04 14:10:11;;;;;;;3.55;0.60;;;;;;;;;;4935154;29;20583;-80
2024/01/04 14:12:37;;;;;;;6.75;1.05;;;;;;;;;;4918169;29;20056;-79
2024/01/04 14:15:06;;;;;;;2.40;0.80;;;;;;;;;;4936616;29;20502;-81
2024/01/04 14:17:34;;;;;;;4.40;0.98;;;;;;;;;;4916933;29;20055;-77
2024/01/04 14:20:01;;;;;;;4.72;1.20;;;;;;;;;;4915863;29;20283;-77
2024/01/04 14:22:29;;;;;;;3.20;0.70;;;;;;;;;;4937605;29;20039;-78
2024/01/04 14:24:56;;;;;;;4.35;0.77;;;;;;;;;;4942238;29;20042;-77
2024/01/04 14:27:23;;;;;;;5.25;0.80;;;;;;;;;;4923910;29;20055;-78
2024/01/04 14:29:52;;;;;;;3.42;1.15;;;;;;;;;;4914010;29;20040;-77
2024/01/04 14:32:19;;;;;;;5.32;0.60;;;;;;;;;;4904350;29;20058;-78
2024/01/04 14:34:46;;;;;;;2.65;0.82;;;;;;;;;;4903668;29;20054;-78
2024/01/04 14:37:13;;;;;;;6.18;1.20;;;;;;;;;;4917926;29;20059;-78
2024/01/04 14:39:40;;;;;;;3.97;0.95;;;;;;;;;;4900637;29;20598;-78
2024/01/04 14:42:07;;;;;;;4.50;0.68;;;;;;;;;;4916085;29;20047;-78
2024/01/04 14:44:38;;;;;;;4.03;0.85;;;;;;;;;;4944694;29;20055;-78
2024/01/04 14:47:05;;;;;;;4.93;0.88;;;;;;;;;;4913197;29;20056;-78